createdAt,value
2019-01-19T00:00:08.240Z,2.63
2019-01-19T00:03:01.195Z,2.62
2019-01-19T00:05:54.497Z,2.62
2019-01-19T00:08:52.341Z,2.64
2019-01-19T00:11:59.762Z,2.65
2019-01-19T00:14:45.845Z,2.66
2019-01-19T00:18:01.945Z,2.67
2019-01-19T00:21:10.143Z,2.66
2019-01-19T00:24:15.862Z,2.65
2019-01-19T00:27:11.908Z,2.66
2019-01-19T00:30:18.490Z,2.68
2019-01-19T00:33:36.671Z,2.67
2019-01-19T00:36:50.331Z,2.67
2019-01-19T00:39:46.219Z,2.70
2019-01-19T00:42:30.568Z,2.66
2019-01-19T00:45:38.115Z,2.66
2019-01-19T00:48:39.048Z,2.64
2019-01-19T00:51:55.028Z,2.63
2019-01-19T00:54:33.186Z,2.63
2019-01-19T00:57:18.260Z,2.63
2019-01-19T00:59:53.693Z,2.63
2019-01-19T01:03:04.004Z,2.62
2019-01-19T01:05:47.989Z,2.61
2019-01-19T01:08:41.941Z,2.58
2019-01-19T01:11:59.758Z,2.56
2019-01-19T01:15:05.934Z,2.52
2019-01-19T01:18:02.403Z,2.49
2019-01-19T01:21:37.930Z,2.50
2019-01-19T01:24:39.520Z,2.49
2019-01-19T01:27:46.473Z,2.47
2019-01-19T01:30:50.824Z,2.45
2019-01-19T01:34:00.455Z,2.46
2019-01-19T01:36:43.926Z,2.45
2019-01-19T01:39:51.122Z,2.43
2019-01-19T01:43:00.393Z,2.41
2019-01-19T01:46:05.165Z,2.40
2019-01-19T01:49:19.234Z,2.40
2019-01-19T01:52:37.348Z,2.39
2019-01-19T01:55:33.259Z,2.39
2019-01-19T01:58:28.952Z,2.37
2019-01-19T02:01:26.156Z,2.36
2019-01-19T02:04:42.960Z,2.36
2019-01-19T02:08:08.802Z,2.34
2019-01-19T02:11:06.660Z,2.33
2019-01-19T02:14:01.367Z,2.29
2019-01-19T02:17:06.621Z,2.27
2019-01-19T02:20:08.875Z,2.30
2019-01-19T02:23:03.021Z,2.30
2019-01-19T02:26:15.678Z,2.26
2019-01-19T02:29:35.464Z,2.25
2019-01-19T02:32:49.570Z,2.27
2019-01-19T02:35:48.417Z,2.26
2019-01-19T02:38:20.258Z,2.27
2019-01-19T02:41:12.699Z,2.27
2019-01-19T02:44:19.797Z,2.27
2019-01-19T02:47:24.326Z,2.27
2019-01-19T02:50:36.928Z,2.27
2019-01-19T02:53:53.684Z,2.24
2019-01-19T02:56:58.786Z,2.20
2019-01-19T02:59:53.271Z,2.18
2019-01-19T03:03:16.761Z,2.17
2019-01-19T03:06:11.232Z,2.17
2019-01-19T03:09:31.328Z,2.17
2019-01-19T03:12:14.752Z,2.18
2019-01-19T03:15:17.483Z,2.15
2019-01-19T03:18:20.028Z,2.11
2019-01-19T03:21:15.544Z,2.07
2019-01-19T03:24:22.717Z,2.03
2019-01-19T03:27:23.149Z,2.02
2019-01-19T03:30:24.933Z,2.00
2019-01-19T03:34:00.564Z,1.98
2019-01-19T03:36:58.000Z,1.94
2019-01-19T03:39:53.227Z,1.89
2019-01-19T03:43:04.102Z,1.86
2019-01-19T03:46:18.547Z,1.83
2019-01-19T03:49:21.503Z,1.81
2019-01-19T03:52:07.647Z,1.76
2019-01-19T03:55:21.430Z,1.72
2019-01-19T03:58:04.235Z,1.71
2019-01-19T04:01:08.350Z,1.67
2019-01-19T04:04:00.069Z,1.65
2019-01-19T04:07:19.166Z,1.64
2019-01-19T04:10:06.888Z,1.62
2019-01-19T04:13:13.802Z,1.57
2019-01-19T04:16:09.332Z,1.53
2019-01-19T04:18:57.631Z,1.52
2019-01-19T04:22:07.861Z,1.52
2019-01-19T04:25:12.036Z,1.50
2019-01-19T04:27:41.976Z,1.52
2019-01-19T04:30:13.030Z,1.53
2019-01-19T04:32:42.946Z,1.56
2019-01-19T04:35:12.866Z,1.56
2019-01-19T04:37:42.727Z,1.57
2019-01-19T04:40:13.681Z,1.57
2019-01-19T04:42:45.211Z,1.56
2019-01-19T04:45:15.417Z,1.54
2019-01-19T04:47:45.358Z,1.53
2019-01-19T04:50:15.233Z,1.51
2019-01-19T04:52:45.558Z,1.50
2019-01-19T04:55:15.472Z,1.49
2019-01-19T04:57:45.406Z,1.48
2019-01-19T05:00:17.909Z,1.50
2019-01-19T05:02:48.346Z,1.49
2019-01-19T05:05:19.305Z,1.47
2019-01-19T05:07:49.149Z,1.47
2019-01-19T05:10:18.996Z,1.44
2019-01-19T05:12:49.429Z,1.41
2019-01-19T05:15:21.121Z,1.41
2019-01-19T05:17:51.152Z,1.40
2019-01-19T05:20:21.093Z,1.39
2019-01-19T05:22:50.963Z,1.38
2019-01-19T05:25:20.906Z,1.38
2019-01-19T05:27:50.809Z,1.40
2019-01-19T05:30:21.568Z,1.41
2019-01-19T05:32:52.226Z,1.43
2019-01-19T05:35:22.253Z,1.45
2019-01-19T05:37:52.181Z,1.46
2019-01-19T05:40:22.285Z,1.49
2019-01-19T05:42:52.204Z,1.49
2019-01-19T05:45:23.123Z,1.49
2019-01-19T05:47:53.393Z,1.49
2019-01-19T05:50:23.773Z,1.48
2019-01-19T05:52:53.691Z,1.47
2019-01-19T05:55:23.637Z,1.46
2019-01-19T05:57:53.549Z,1.44
2019-01-19T06:00:31.450Z,1.43
2019-01-19T06:03:01.395Z,1.40
2019-01-19T06:05:31.395Z,1.40
2019-01-19T06:08:01.361Z,1.40
2019-01-19T06:10:31.582Z,1.40
2019-01-19T06:13:01.536Z,1.36
2019-01-19T06:15:31.789Z,1.33
2019-01-19T06:18:02.059Z,1.34
2019-01-19T06:20:32.343Z,1.33
2019-01-19T06:23:02.275Z,1.32
2019-01-19T06:25:32.213Z,1.31
2019-01-19T06:28:02.175Z,1.31
2019-01-19T06:30:32.650Z,1.30
2019-01-19T06:33:02.871Z,1.29
2019-01-19T06:35:32.726Z,1.29
2019-01-19T06:38:02.578Z,1.28
2019-01-19T06:40:32.500Z,1.26
2019-01-19T06:43:02.415Z,1.25
2019-01-19T06:45:32.331Z,1.26
2019-01-19T06:48:02.563Z,1.27
2019-01-19T06:50:32.500Z,1.29
2019-01-19T06:53:02.754Z,1.28
2019-01-19T06:55:34.967Z,1.29
2019-01-19T06:58:04.907Z,1.30
2019-01-19T07:00:35.509Z,1.30
2019-01-19T07:03:05.564Z,1.34
2019-01-19T07:05:35.515Z,1.35
2019-01-19T07:08:05.575Z,1.35
2019-01-19T07:10:35.507Z,1.32
2019-01-19T07:13:05.468Z,1.33
2019-01-19T07:15:35.396Z,1.32
2019-01-19T07:18:05.418Z,1.34
2019-01-19T07:20:35.263Z,1.35
2019-01-19T07:23:05.465Z,1.35
2019-01-19T07:25:35.403Z,1.37
2019-01-19T07:28:05.325Z,1.36
2019-01-19T07:30:35.571Z,1.38
2019-01-19T07:33:06.529Z,1.36
2019-01-19T07:35:37.078Z,1.37
2019-01-19T07:38:07.332Z,1.39
2019-01-19T07:40:37.263Z,1.41
2019-01-19T07:43:09.509Z,1.43
2019-01-19T07:45:39.423Z,1.45
2019-01-19T07:48:09.543Z,1.47
2019-01-19T07:50:39.739Z,1.46
2019-01-19T07:53:09.660Z,1.44
2019-01-19T07:55:39.589Z,1.43
2019-01-19T07:58:09.534Z,1.44
2019-01-19T08:00:39.456Z,1.46
2019-01-19T08:03:09.383Z,1.46
2019-01-19T08:05:39.653Z,1.47
2019-01-19T08:08:09.569Z,1.49
2019-01-19T08:10:39.775Z,1.51
2019-01-19T08:13:09.606Z,1.55
2019-01-19T08:15:39.528Z,1.58
2019-01-19T08:18:09.440Z,1.63
2019-01-19T08:20:39.374Z,1.68
2019-01-19T08:23:09.314Z,1.73
2019-01-19T08:25:39.463Z,1.79
2019-01-19T08:28:09.429Z,1.85
2019-01-19T08:30:39.347Z,1.92
2019-01-19T08:33:09.300Z,1.97
2019-01-19T08:35:39.460Z,2.00
2019-01-19T08:38:09.386Z,2.04
2019-01-19T08:40:39.569Z,2.10
2019-01-19T08:43:31.422Z,2.15
2019-01-19T08:46:02.327Z,2.21
2019-01-19T08:48:32.241Z,2.26
2019-01-19T08:51:02.094Z,2.28
2019-01-19T08:53:32.100Z,2.34
2019-01-19T08:56:02.024Z,2.37
2019-01-19T08:58:32.735Z,2.37
2019-01-19T09:01:02.934Z,2.41
2019-01-19T09:03:32.863Z,2.44
2019-01-19T09:06:02.777Z,2.49
2019-01-19T09:08:32.720Z,2.52
2019-01-19T09:11:03.008Z,2.58
2019-01-19T09:13:33.962Z,2.61
2019-01-19T09:16:13.328Z,2.66
2019-01-19T09:18:43.245Z,2.68
2019-01-19T09:21:13.158Z,2.72
2019-01-19T09:23:56.364Z,2.74
2019-01-19T09:26:26.307Z,2.79
2019-01-19T09:28:56.115Z,2.84
2019-01-19T09:31:26.029Z,2.86
2019-01-19T09:33:56.334Z,2.90
2019-01-19T09:36:26.529Z,2.97
2019-01-19T09:38:56.468Z,3.03
2019-01-19T09:41:26.666Z,3.10
2019-01-19T09:43:56.606Z,3.21
2019-01-19T09:46:26.553Z,3.31
2019-01-19T09:48:56.803Z,3.41
2019-01-19T09:51:27.065Z,3.49
2019-01-19T09:53:56.986Z,3.60
2019-01-19T09:56:26.908Z,3.68
2019-01-19T09:58:57.024Z,3.76
2019-01-19T10:01:27.011Z,3.84
2019-01-19T10:03:56.863Z,3.91
2019-01-19T10:06:26.870Z,3.95
2019-01-19T10:08:56.787Z,4.00
2019-01-19T10:11:26.724Z,4.08
2019-01-19T10:13:56.993Z,4.15
2019-01-19T10:16:27.208Z,4.19
2019-01-19T10:18:57.130Z,4.25
2019-01-19T10:21:27.822Z,4.32
2019-01-19T10:23:57.733Z,4.38
2019-01-19T10:26:27.659Z,4.45
2019-01-19T10:28:58.315Z,4.53
2019-01-19T10:31:28.234Z,4.64
2019-01-19T10:33:58.216Z,4.69
2019-01-19T10:36:28.140Z,4.73
2019-01-19T10:38:58.067Z,4.76
2019-01-19T10:41:28.002Z,4.82
2019-01-19T10:43:57.944Z,4.93
2019-01-19T10:46:27.882Z,4.94
2019-01-19T10:48:57.837Z,5.02
2019-01-19T10:51:28.984Z,5.04
2019-01-19T10:53:59.067Z,5.08
2019-01-19T10:56:29.037Z,5.12
2019-01-19T10:58:59.222Z,5.17
2019-01-19T11:01:29.448Z,5.25
2019-01-19T11:03:59.391Z,5.34
2019-01-19T11:06:29.361Z,5.35
2019-01-19T11:08:59.992Z,5.36
2019-01-19T11:11:30.053Z,5.35
2019-01-19T11:13:59.909Z,5.38
2019-01-19T11:16:29.822Z,5.41
2019-01-19T11:18:59.746Z,5.42
2019-01-19T11:21:29.719Z,5.43
2019-01-19T11:23:59.908Z,5.43
2019-01-19T11:26:30.218Z,5.44
2019-01-19T11:29:00.080Z,5.46
2019-01-19T11:31:30.358Z,5.50
2019-01-19T11:34:00.296Z,5.51
2019-01-19T11:36:30.324Z,5.52
2019-01-19T11:39:00.240Z,5.51
2019-01-19T11:41:30.219Z,5.51
2019-01-19T11:44:00.144Z,5.50
2019-01-19T11:46:29.996Z,5.55
2019-01-19T11:48:59.935Z,5.63
2019-01-19T11:51:29.782Z,5.70
2019-01-19T11:53:59.752Z,5.76
2019-01-19T11:56:29.688Z,5.79
2019-01-19T11:58:59.545Z,5.81
2019-01-19T12:01:29.533Z,5.84
2019-01-19T12:03:59.860Z,5.88
2019-01-19T12:06:29.807Z,5.93
2019-01-19T12:08:59.743Z,5.96
2019-01-19T12:11:29.599Z,5.96
2019-01-19T12:14:00.573Z,6.04
2019-01-19T12:16:30.653Z,6.14
2019-01-19T12:19:00.914Z,6.20
2019-01-19T12:21:30.904Z,6.27
2019-01-19T12:24:01.129Z,6.30
2019-01-19T12:26:31.073Z,6.28
2019-01-19T12:29:00.947Z,6.36
2019-01-19T12:31:30.872Z,6.50
2019-01-19T12:34:00.817Z,6.61
2019-01-19T12:36:31.995Z,6.70
2019-01-19T12:39:02.895Z,6.76
2019-01-19T12:41:35.818Z,6.75
2019-01-19T12:44:06.439Z,6.83
2019-01-19T12:46:36.690Z,6.88
2019-01-19T12:49:06.659Z,6.84
2019-01-19T12:51:36.938Z,6.74
2019-01-19T12:54:06.933Z,6.71
2019-01-19T12:56:37.151Z,6.80
2019-01-19T12:59:07.890Z,6.88
2019-01-19T13:01:37.845Z,6.94
2019-01-19T13:04:07.762Z,7.05
2019-01-19T13:07:11.532Z,7.18
2019-01-19T13:09:54.308Z,7.18
2019-01-19T13:12:48.378Z,7.06
2019-01-19T13:16:15.138Z,6.92
2019-01-19T13:18:53.406Z,6.78
2019-01-19T13:21:59.410Z,6.61
2019-01-19T13:25:03.686Z,6.52
2019-01-19T13:28:10.870Z,6.54
2019-01-19T13:30:56.875Z,6.57
2019-01-19T13:34:16.874Z,6.57
2019-01-19T13:37:29.477Z,6.51
2019-01-19T13:40:32.803Z,6.45
2019-01-19T13:43:56.279Z,6.45
2019-01-19T13:46:47.259Z,6.50
2019-01-19T13:49:52.956Z,6.51
2019-01-19T13:52:41.546Z,6.58
2019-01-19T13:55:50.180Z,6.66
2019-01-19T13:58:33.417Z,6.74
2019-01-19T14:01:33.757Z,6.92
2019-01-19T14:04:31.302Z,7.16
2019-01-19T14:07:31.457Z,7.29
2019-01-19T14:10:48.825Z,7.34
2019-01-19T14:13:48.646Z,7.40
2019-01-19T14:16:50.434Z,7.46
2019-01-19T14:19:58.451Z,7.54
2019-01-19T14:22:57.643Z,7.59
2019-01-19T14:26:03.752Z,7.68
2019-01-19T14:29:07.358Z,7.82
2019-01-19T14:31:50.740Z,7.91
2019-01-19T14:34:46.265Z,7.91
2019-01-19T14:38:03.331Z,7.88
2019-01-19T14:41:17.578Z,7.80
2019-01-19T14:44:20.501Z,7.60
2019-01-19T14:47:11.645Z,7.33
2019-01-19T14:50:10.192Z,7.08
2019-01-19T14:53:17.483Z,6.90
2019-01-19T14:56:43.091Z,6.66
2019-01-19T14:59:53.540Z,6.49
2019-01-19T15:02:48.090Z,6.28
2019-01-19T15:05:24.628Z,6.15
2019-01-19T15:08:29.067Z,6.03
2019-01-19T15:11:21.503Z,5.93
2019-01-19T15:14:12.802Z,5.82
2019-01-19T15:16:58.192Z,5.76
2019-01-19T15:20:11.639Z,5.68
2019-01-19T15:23:25.253Z,5.58
2019-01-19T15:26:54.456Z,5.49
2019-01-19T15:29:48.881Z,5.43
2019-01-19T15:32:55.041Z,5.36
2019-01-19T15:36:08.345Z,5.32
2019-01-19T15:39:11.054Z,5.29
2019-01-19T15:42:10.411Z,5.22
2019-01-19T15:45:46.056Z,5.14
2019-01-19T15:49:04.168Z,5.07
2019-01-19T15:52:07.213Z,5.01
2019-01-19T15:55:00.892Z,4.97
2019-01-19T15:57:57.204Z,4.90
2019-01-19T16:00:49.969Z,4.83
2019-01-19T16:03:58.709Z,4.80
2019-01-19T16:06:42.289Z,4.76
2019-01-19T16:09:46.567Z,4.69
2019-01-19T16:12:57.133Z,4.64
2019-01-19T16:16:14.213Z,4.59
2019-01-19T16:19:34.051Z,4.51
2019-01-19T16:22:20.009Z,4.42
2019-01-19T16:25:21.911Z,4.36
2019-01-19T16:28:11.587Z,4.33
2019-01-19T16:31:30.939Z,4.25
2019-01-19T16:34:31.094Z,4.22
2019-01-19T16:37:17.066Z,4.16
2019-01-19T16:40:16.416Z,4.11
2019-01-19T16:43:23.377Z,4.10
2019-01-19T16:46:02.923Z,4.08
2019-01-19T16:48:51.431Z,4.05
2019-01-19T16:51:52.590Z,4.03
2019-01-19T16:54:51.259Z,4.00
2019-01-19T16:58:08.286Z,3.98
2019-01-19T17:01:15.587Z,3.98
2019-01-19T17:04:28.605Z,3.94
2019-01-19T17:07:35.661Z,3.90
2019-01-19T17:10:32.115Z,3.87
2019-01-19T17:13:35.045Z,3.81
2019-01-19T17:16:34.242Z,3.80
2019-01-19T17:19:50.187Z,3.79
2019-01-19T17:22:57.154Z,3.76
2019-01-19T17:25:58.720Z,3.75
2019-01-19T17:28:43.778Z,3.75
2019-01-19T17:31:29.856Z,3.71
2019-01-19T17:34:38.834Z,3.70
2019-01-19T17:37:17.227Z,3.68
2019-01-19T17:40:04.680Z,3.63
2019-01-19T17:42:53.783Z,3.59
2019-01-19T17:45:56.092Z,3.58
2019-01-19T17:49:31.425Z,3.54
2019-01-19T17:52:41.424Z,3.51
2019-01-19T17:55:33.356Z,3.46
2019-01-19T17:58:26.558Z,3.42
2019-01-19T18:01:44.830Z,3.37
2019-01-19T18:04:33.714Z,3.33
2019-01-19T18:07:31.767Z,3.28
2019-01-19T18:10:36.536Z,3.26
2019-01-19T18:13:55.442Z,3.21
2019-01-19T18:16:54.278Z,3.19
2019-01-19T18:19:41.776Z,3.15
2019-01-19T18:22:35.375Z,3.16
2019-01-19T18:25:31.499Z,3.15
2019-01-19T18:28:29.374Z,3.14
2019-01-19T18:31:43.587Z,3.12
2019-01-19T18:35:06.917Z,3.09
2019-01-19T18:38:13.023Z,3.05
2019-01-19T18:41:32.147Z,3.02
2019-01-19T18:44:28.768Z,3.03
2019-01-19T18:47:32.199Z,2.99
2019-01-19T18:50:55.223Z,2.97
2019-01-19T18:54:12.290Z,2.95
2019-01-19T18:57:22.127Z,2.92
2019-01-19T19:00:22.287Z,2.89
2019-01-19T19:03:21.801Z,2.85
2019-01-19T19:06:26.566Z,2.85
2019-01-19T19:09:19.659Z,2.80
2019-01-19T19:12:16.071Z,2.78
2019-01-19T19:15:21.942Z,2.74
2019-01-19T19:18:32.016Z,2.78
2019-01-19T19:21:25.891Z,2.80
2019-01-19T19:24:51.565Z,2.83
2019-01-19T19:28:07.304Z,2.81
2019-01-19T19:31:13.801Z,2.77
2019-01-19T19:34:34.064Z,2.74
2019-01-19T19:37:32.620Z,2.71
2019-01-19T19:40:52.973Z,2.71
2019-01-19T19:43:50.951Z,2.72
2019-01-19T19:46:42.286Z,2.72
2019-01-19T19:49:49.362Z,2.69
2019-01-19T19:52:19.491Z,2.68
2019-01-19T19:54:51.567Z,2.65
2019-01-19T19:57:30.617Z,2.62
2019-01-19T20:00:00.771Z,2.60
2019-01-19T20:02:32.490Z,2.55
2019-01-19T20:05:02.642Z,2.54
2019-01-19T20:07:32.978Z,2.54
2019-01-19T20:10:03.050Z,2.52
2019-01-19T20:12:34.691Z,2.50
2019-01-19T20:15:06.925Z,2.48
2019-01-19T20:17:37.077Z,2.48
2019-01-19T20:20:07.608Z,2.47
2019-01-19T20:22:37.726Z,2.47
2019-01-19T20:25:08.034Z,2.50
2019-01-19T20:27:38.079Z,2.52
2019-01-19T20:30:10.327Z,2.51
2019-01-19T20:32:40.446Z,2.52
2019-01-19T20:35:10.815Z,2.51
2019-01-19T20:37:41.672Z,2.51
2019-01-19T20:40:12.079Z,2.51
2019-01-19T20:42:42.238Z,2.51
2019-01-19T20:45:12.763Z,2.51
2019-01-19T20:47:42.887Z,2.49
2019-01-19T20:50:13.421Z,2.45
2019-01-19T20:52:43.510Z,2.43
2019-01-19T20:55:13.756Z,2.44
2019-01-19T20:57:43.897Z,2.43
2019-01-19T21:00:16.337Z,2.42
2019-01-19T21:02:46.821Z,2.40
2019-01-19T21:05:16.853Z,2.37
2019-01-19T21:07:47.053Z,2.40
2019-01-19T21:10:18.059Z,2.41
2019-01-19T21:12:48.282Z,2.41
2019-01-19T21:15:18.583Z,2.38
2019-01-19T21:17:55.607Z,2.35
2019-01-19T21:20:20.592Z,2.35
2019-01-19T21:22:50.718Z,2.35
2019-01-19T21:25:20.836Z,2.34
2019-01-19T21:27:50.937Z,2.34
2019-01-19T21:30:21.009Z,2.33
2019-01-19T21:32:51.251Z,2.31
2019-01-19T21:35:21.368Z,2.29
2019-01-19T21:37:51.521Z,2.29
2019-01-19T21:40:21.667Z,2.29
2019-01-19T21:42:51.685Z,2.29
2019-01-19T21:45:21.761Z,2.29
2019-01-19T21:47:51.884Z,2.27
2019-01-19T21:50:21.963Z,2.24
2019-01-19T21:52:52.107Z,2.25
2019-01-19T21:55:22.162Z,2.23
2019-01-19T21:57:52.203Z,2.22
2019-01-19T22:00:22.404Z,2.19
2019-01-19T22:02:52.485Z,2.17
2019-01-19T22:05:22.665Z,2.14
2019-01-19T22:07:52.726Z,2.11
2019-01-19T22:10:23.633Z,2.07
2019-01-19T22:12:53.757Z,2.04
2019-01-19T22:15:23.827Z,2.01
2019-01-19T22:17:53.883Z,1.99
2019-01-19T22:20:24.023Z,1.97
2019-01-19T22:22:54.125Z,1.94
2019-01-19T22:25:24.167Z,1.94
2019-01-19T22:27:54.249Z,1.92
2019-01-19T22:30:25.337Z,1.89
2019-01-19T22:32:56.733Z,1.87
2019-01-19T22:35:29.112Z,1.85
2019-01-19T22:37:59.324Z,1.82
2019-01-19T22:40:29.965Z,1.79
2019-01-19T22:43:02.973Z,1.76
2019-01-19T22:45:33.091Z,1.75
2019-01-19T22:48:04.715Z,1.74
2019-01-19T22:50:34.776Z,1.71
2019-01-19T22:53:04.894Z,1.70
2019-01-19T22:55:34.947Z,1.66
2019-01-19T22:58:05.018Z,1.65
2019-01-19T23:01:00.673Z,1.59
2019-01-19T23:03:33.829Z,1.56
2019-01-19T23:06:03.955Z,1.54
2019-01-19T23:08:34.105Z,1.51
2019-01-19T23:11:05.012Z,1.47
2019-01-19T23:13:35.081Z,1.45
2019-01-19T23:16:05.791Z,1.45
2019-01-19T23:18:35.989Z,1.40
2019-01-19T23:21:06.002Z,1.36
2019-01-19T23:23:37.072Z,1.34
2019-01-19T23:26:07.254Z,1.31
2019-01-19T23:28:38.573Z,1.28
2019-01-19T23:31:08.653Z,1.26
2019-01-19T23:33:38.704Z,1.26
2019-01-19T23:36:08.767Z,1.28
2019-01-19T23:38:38.947Z,1.26
2019-01-19T23:41:09.774Z,1.26
2019-01-19T23:43:39.837Z,1.27
2019-01-19T23:46:09.900Z,1.25
2019-01-19T23:48:40.002Z,1.24
2019-01-19T23:51:10.040Z,1.25
2019-01-19T23:53:40.181Z,1.27
2019-01-19T23:56:10.179Z,1.28
2019-01-19T23:58:40.314Z,1.29
